sensor_id;sensor_type;location;lat;lon;timestamp;pressure;altitude;pressure_sealevel;temperature;humidity
26563;BME280;14217;50.986;5.826;2022-11-15T00:04:15;100247.94;;;19.14;42.58
26563;BME280;14217;50.986;5.826;2022-11-15T00:09:17;100253.44;;;19.11;42.42
26563;BME280;14217;50.986;5.826;2022-11-15T00:14:19;100238.28;;;19.13;42.58
26563;BME280;14217;50.986;5.826;2022-11-15T00:19:21;100243.69;;;19.11;42.42
26563;BME280;14217;50.986;5.826;2022-11-15T00:24:23;100247.88;;;19.15;42.53
26563;BME280;14217;50.986;5.826;2022-11-15T00:29:25;100245.91;;;19.19;42.27
26563;BME280;14217;50.986;5.826;2022-11-15T00:34:27;100238.09;;;19.16;42.37
26563;BME280;14217;50.986;5.826;2022-11-15T00:39:29;100234.00;;;19.10;42.68
26563;BME280;14217;50.986;5.826;2022-11-15T00:44:30;100239.91;;;19.15;42.48
26563;BME280;14217;50.986;5.826;2022-11-15T00:49:32;100242.56;;;19.15;42.42
26563;BME280;14217;50.986;5.826;2022-11-15T00:54:34;100235.38;;;19.17;42.62
26563;BME280;14217;50.986;5.826;2022-11-15T00:59:36;100229.56;;;19.11;42.67
26563;BME280;14217;50.986;5.826;2022-11-15T01:04:38;100234.94;;;19.09;42.78
26563;BME280;14217;50.986;5.826;2022-11-15T01:09:40;100234.00;;;19.10;42.68
26563;BME280;14217;50.986;5.826;2022-11-15T01:14:45;100222.09;;;19.17;42.73
26563;BME280;14217;50.986;5.826;2022-11-15T01:19:47;100222.63;;;19.08;42.66
26563;BME280;14217;50.986;5.826;2022-11-15T01:24:50;100217.91;;;19.13;42.90
26563;BME280;14217;50.986;5.826;2022-11-15T01:29:52;100199.03;;;19.18;42.47
26563;BME280;14217;50.986;5.826;2022-11-15T01:34:54;100199.88;;;19.18;42.75
26563;BME280;14217;50.986;5.826;2022-11-15T01:39:55;100201.00;;;19.14;42.57
26563;BME280;14217;50.986;5.826;2022-11-15T01:44:57;100200.75;;;19.19;42.83
26563;BME280;14217;50.986;5.826;2022-11-15T01:50:05;100189.25;;;19.18;42.49
26563;BME280;14217;50.986;5.826;2022-11-15T01:55:15;100194.56;;;19.18;42.53
26563;BME280;14217;50.986;5.826;2022-11-15T02:00:18;100194.56;;;19.18;42.70
26563;BME280;14217;50.986;5.826;2022-11-15T02:05:20;100187.56;;;19.17;42.59
26563;BME280;14217;50.986;5.826;2022-11-15T02:10:24;100184.72;;;19.20;42.57
26563;BME280;14217;50.986;5.826;2022-11-15T02:15:32;100189.09;;;19.21;42.57
26563;BME280;14217;50.986;5.826;2022-11-15T02:20:49;100189.38;;;19.17;42.76
26563;BME280;14217;50.986;5.826;2022-11-15T02:32:31;100191.91;;;19.18;42.63
26563;BME280;14217;50.986;5.826;2022-11-15T02:42:40;100173.31;;;19.18;42.69
26563;BME280;14217;50.986;5.826;2022-11-15T02:48:09;100176.09;;;19.17;42.76
26563;BME280;14217;50.986;5.826;2022-11-15T02:53:14;100166.59;;;19.13;42.88
26563;BME280;14217;50.986;5.826;2022-11-15T02:58:42;100166.41;;;19.16;42.91
26563;BME280;14217;50.986;5.826;2022-11-15T03:14:21;100145.06;;;19.17;43.08
26563;BME280;14217;50.986;5.826;2022-11-15T03:24:31;100136.16;;;19.18;42.86
26563;BME280;14217;50.986;5.826;2022-11-15T03:29:39;100130.69;;;19.21;42.77
26563;BME280;14217;50.986;5.826;2022-11-15T03:39:48;100120.22;;;19.18;43.14
26563;BME280;14217;50.986;5.826;2022-11-15T03:45:08;100134.53;;;19.16;42.96
26563;BME280;14217;50.986;5.826;2022-11-15T03:50:19;100139.78;;;19.17;42.81
26563;BME280;14217;50.986;5.826;2022-11-15T03:55:21;100127.88;;;19.08;43.35
26563;BME280;14217;50.986;5.826;2022-11-15T04:00:23;100131.03;;;19.15;43.02
26563;BME280;14217;50.986;5.826;2022-11-15T04:05:25;100128.78;;;19.23;42.86
26563;BME280;14217;50.986;5.826;2022-11-15T04:10:27;100116.78;;;19.16;42.95
26563;BME280;14217;50.986;5.826;2022-11-15T04:15:29;100122.09;;;19.16;43.16
26563;BME280;14217;50.986;5.826;2022-11-15T04:20:31;100123.63;;;19.20;42.85
26563;BME280;14217;50.986;5.826;2022-11-15T04:25:54;100109.72;;;19.17;43.15
26563;BME280;14217;50.986;5.826;2022-11-15T04:30:56;100108.06;;;19.14;43.32
26563;BME280;14217;50.986;5.826;2022-11-15T04:35:58;100113.22;;;19.17;42.98
26563;BME280;14217;50.986;5.826;2022-11-15T04:41:19;100123.06;;;19.15;43.31
26563;BME280;14217;50.986;5.826;2022-11-15T04:46:21;100130.84;;;19.18;43.23
26563;BME280;14217;50.986;5.826;2022-11-15T04:51:23;100127.25;;;19.19;43.16
26563;BME280;14217;50.986;5.826;2022-11-15T04:56:25;100121.94;;;19.19;43.10
26563;BME280;14217;50.986;5.826;2022-11-15T05:01:27;100123.84;;;19.17;43.31
26563;BME280;14217;50.986;5.826;2022-11-15T05:06:29;100124.00;;;19.14;43.37
26563;BME280;14217;50.986;5.826;2022-11-15T05:11:31;100123.75;;;19.19;43.06
26563;BME280;14217;50.986;5.826;2022-11-15T05:16:33;100128.94;;;19.20;42.96
26563;BME280;14217;50.986;5.826;2022-11-15T05:21:36;100124.50;;;19.21;43.08
26563;BME280;14217;50.986;5.826;2022-11-15T05:26:38;100120.75;;;19.25;43.07
26563;BME280;14217;50.986;5.826;2022-11-15T05:31:40;100122.63;;;19.23;43.25
26563;BME280;14217;50.986;5.826;2022-11-15T05:36:44;100125.91;;;19.12;43.16
26563;BME280;14217;50.986;5.826;2022-11-15T05:41:53;100119.22;;;19.21;43.12
26563;BME280;14217;50.986;5.826;2022-11-15T05:46:57;100129.72;;;19.22;43.02
26563;BME280;14217;50.986;5.826;2022-11-15T05:51:59;100146.13;;;19.15;43.46
26563;BME280;14217;50.986;5.826;2022-11-15T05:57:02;100149.53;;;19.17;43.32
26563;BME280;14217;50.986;5.826;2022-11-15T06:02:05;100151.91;;;19.21;43.31
26563;BME280;14217;50.986;5.826;2022-11-15T06:07:07;100150.97;;;19.22;43.36
26563;BME280;14217;50.986;5.826;2022-11-15T06:12:09;100159.97;;;19.20;43.15
26563;BME280;14217;50.986;5.826;2022-11-15T06:17:11;100172.47;;;19.18;43.24
26563;BME280;14217;50.986;5.826;2022-11-15T06:22:13;100162.06;;;19.15;43.44
26563;BME280;14217;50.986;5.826;2022-11-15T06:27:15;100156.81;;;19.13;43.60
26563;BME280;14217;50.986;5.826;2022-11-15T06:32:17;100164.94;;;19.26;43.11
26563;BME280;14217;50.986;5.826;2022-11-15T06:37:19;100172.47;;;19.18;43.23
26563;BME280;14217;50.986;5.826;2022-11-15T06:42:20;100178.63;;;19.18;43.48
26563;BME280;14217;50.986;5.826;2022-11-15T06:47:23;100185.41;;;19.24;43.21
26563;BME280;14217;50.986;5.826;2022-11-15T06:52:24;100199.81;;;19.20;43.54
26563;BME280;14217;50.986;5.826;2022-11-15T06:57:26;100204.06;;;19.22;43.16
26563;BME280;14217;50.986;5.826;2022-11-15T07:02:29;100195.19;;;19.23;43.40
26563;BME280;14217;50.986;5.826;2022-11-15T07:07:31;100203.16;;;19.23;43.33
26563;BME280;14217;50.986;5.826;2022-11-15T07:12:33;100206.84;;;19.21;43.57
26563;BME280;14217;50.986;5.826;2022-11-15T07:17:35;100206.06;;;19.19;43.29
26563;BME280;14217;50.986;5.826;2022-11-15T07:22:37;100205.97;;;19.20;43.54
26563;BME280;14217;50.986;5.826;2022-11-15T07:27:39;100196.31;;;19.19;43.27
26563;BME280;14217;50.986;5.826;2022-11-15T07:32:42;100200.34;;;19.11;44.13
26563;BME280;14217;50.986;5.826;2022-11-15T07:37:44;100201.47;;;19.06;44.64
26563;BME280;14217;50.986;5.826;2022-11-15T07:42:46;100197.69;;;19.11;44.46
26563;BME280;14217;50.986;5.826;2022-11-15T07:47:54;100202.06;;;18.96;44.94
26563;BME280;14217;50.986;5.826;2022-11-15T07:52:58;100200.28;;;18.96;45.93
26563;BME280;14217;50.986;5.826;2022-11-15T07:58:11;100195.03;;;19.11;45.36
26563;BME280;14217;50.986;5.826;2022-11-15T08:03:14;100194.69;;;19.17;44.96
26563;BME280;14217;50.986;5.826;2022-11-15T08:08:18;100195.34;;;19.20;45.03
26563;BME280;14217;50.986;5.826;2022-11-15T08:13:20;100198.97;;;19.03;45.56
26563;BME280;14217;50.986;5.826;2022-11-15T08:18:23;100206.78;;;19.06;45.50
26563;BME280;14217;50.986;5.826;2022-11-15T08:23:25;100211.38;;;19.19;45.32
26563;BME280;14217;50.986;5.826;2022-11-15T08:28:27;100207.78;;;19.20;44.99
26563;BME280;14217;50.986;5.826;2022-11-15T08:33:29;100198.59;;;19.25;44.94
26563;BME280;14217;50.986;5.826;2022-11-15T08:38:31;100191.69;;;19.23;44.89
26563;BME280;14217;50.986;5.826;2022-11-15T08:43:34;100185.50;;;19.22;44.53
26563;BME280;14217;50.986;5.826;2022-11-15T08:48:36;100175.06;;;19.19;44.82
26563;BME280;14217;50.986;5.826;2022-11-15T08:53:38;100165.00;;;19.24;44.29
26563;BME280;14217;50.986;5.826;2022-11-15T08:58:40;100169.19;;;19.28;44.37
26563;BME280;14217;50.986;5.826;2022-11-15T09:03:44;100168.44;;;19.26;44.07
26563;BME280;14217;50.986;5.826;2022-11-15T09:08:46;100148.31;;;19.22;44.41
26563;BME280;14217;50.986;5.826;2022-11-15T09:13:49;100134.38;;;19.19;44.50
26563;BME280;14217;50.986;5.826;2022-11-15T09:18:52;100137.69;;;19.22;44.21
26563;BME280;14217;50.986;5.826;2022-11-15T09:23:55;100137.19;;;19.16;44.78
26563;BME280;14217;50.986;5.826;2022-11-15T09:28:57;100132.38;;;19.22;44.29
26563;BME280;14217;50.986;5.826;2022-11-15T09:33:59;100124.00;;;19.14;44.51
26563;BME280;14217;50.986;5.826;2022-11-15T09:39:01;100120.22;;;19.18;44.25
26563;BME280;14217;50.986;5.826;2022-11-15T09:49:31;100124.31;;;19.24;44.20
26563;BME280;14217;50.986;5.826;2022-11-15T09:54:35;100124.50;;;19.21;44.13
26563;BME280;14217;50.986;5.826;2022-11-15T10:05:37;100125.38;;;19.21;44.20
26563;BME280;14217;50.986;5.826;2022-11-15T10:10:42;100103.94;;;19.24;44.20
26563;BME280;14217;50.986;5.826;2022-11-15T10:15:46;100109.50;;;19.20;44.07
26563;BME280;14217;50.986;5.826;2022-11-15T10:20:54;100093.50;;;19.21;44.16
26563;BME280;14217;50.986;5.826;2022-11-15T10:25:59;100091.59;;;19.23;44.08
26563;BME280;14217;50.986;5.826;2022-11-15T10:31:26;100084.75;;;19.19;44.23
26563;BME280;14217;50.986;5.826;2022-11-15T10:36:29;100077.19;;;19.27;43.95
26563;BME280;14217;50.986;5.826;2022-11-15T10:41:35;100076.25;;;19.28;43.83
26563;BME280;14217;50.986;5.826;2022-11-15T10:46:39;100065.72;;;19.27;44.03
26563;BME280;14217;50.986;5.826;2022-11-15T10:56:54;100046.25;;;19.26;43.76
26563;BME280;14217;50.986;5.826;2022-11-15T11:01:57;100039.06;;;19.28;43.94
26563;BME280;14217;50.986;5.826;2022-11-15T11:06:59;100030.31;;;19.26;43.89
26563;BME280;14217;50.986;5.826;2022-11-15T11:12:03;100033.56;;;19.32;43.58
26563;BME280;14217;50.986;5.826;2022-11-15T11:33:33;99984.41;;;19.24;43.75
26563;BME280;14217;50.986;5.826;2022-11-15T11:49:18;99946.38;;;19.09;43.97
26563;BME280;14217;50.986;5.826;2022-11-15T11:59:50;99921.81;;;19.20;43.81
26563;BME280;14217;50.986;5.826;2022-11-15T12:05:46;99901.06;;;19.27;43.62
26563;BME280;14217;50.986;5.826;2022-11-15T12:10:28;99900.19;;;19.26;43.53
26563;BME280;14217;50.986;5.826;2022-11-15T12:15:37;99885.22;;;19.25;43.46
26563;BME280;14217;50.986;5.826;2022-11-15T12:20:54;99883.25;;;19.29;43.73
26563;BME280;14217;50.986;5.826;2022-11-15T12:31:15;99880.84;;;19.24;43.71
26563;BME280;14217;50.986;5.826;2022-11-15T12:41:26;99857.63;;;19.14;44.01
26563;BME280;14217;50.986;5.826;2022-11-15T12:56:44;99821.28;;;19.28;43.55
26563;BME280;14217;50.986;5.826;2022-11-15T13:07:05;99797.38;;;19.28;43.44
26563;BME280;14217;50.986;5.826;2022-11-15T13:17:31;99787.91;;;19.24;43.54
26563;BME280;14217;50.986;5.826;2022-11-15T13:33:21;99766.47;;;19.27;43.76
26563;BME280;14217;50.986;5.826;2022-11-15T13:38:30;99757.94;;;19.22;43.79
26563;BME280;14217;50.986;5.826;2022-11-15T13:43:35;99751.38;;;19.28;43.60
26563;BME280;14217;50.986;5.826;2022-11-15T13:48:37;99742.56;;;19.27;43.77
26563;BME280;14217;50.986;5.826;2022-11-15T13:53:45;99746.16;;;19.26;43.85
26563;BME280;14217;50.986;5.826;2022-11-15T13:58:48;99730.97;;;19.28;43.63
26563;BME280;14217;50.986;5.826;2022-11-15T14:03:56;99730.44;;;19.23;43.76
26563;BME280;14217;50.986;5.826;2022-11-15T14:09:03;99720.47;;;19.27;43.69
26563;BME280;14217;50.986;5.826;2022-11-15T14:24:33;99694.78;;;19.27;43.68
26563;BME280;14217;50.986;5.826;2022-11-15T14:29:35;99679.69;;;19.28;43.50
26563;BME280;14217;50.986;5.826;2022-11-15T14:34:37;99667.38;;;19.27;43.44
26563;BME280;14217;50.986;5.826;2022-11-15T14:39:40;99663.09;;;19.24;43.77
26563;BME280;14217;50.986;5.826;2022-11-15T14:44:43;99651.19;;;19.17;43.96
26563;BME280;14217;50.986;5.826;2022-11-15T14:49:46;99642.91;;;19.22;43.75
26563;BME280;14217;50.986;5.826;2022-11-15T14:54:48;99626.97;;;19.22;43.61
26563;BME280;14217;50.986;5.826;2022-11-15T14:59:50;99603.50;;;19.28;43.75
26563;BME280;14217;50.986;5.826;2022-11-15T15:04:52;99600.09;;;19.26;43.73
26563;BME280;14217;50.986;5.826;2022-11-15T15:09:54;99585.16;;;19.25;43.41
26563;BME280;14217;50.986;5.826;2022-11-15T15:15:22;99589.59;;;19.25;43.51
26563;BME280;14217;50.986;5.826;2022-11-15T15:20:25;99592.03;;;19.28;43.70
26563;BME280;14217;50.986;5.826;2022-11-15T15:25:32;99581.00;;;19.21;43.51
26563;BME280;14217;50.986;5.826;2022-11-15T15:30:34;99566.00;;;19.20;43.66
26563;BME280;14217;50.986;5.826;2022-11-15T15:35:36;99568.47;;;19.23;43.78
26563;BME280;14217;50.986;5.826;2022-11-15T15:40:39;99570.16;;;19.24;43.58
26563;BME280;14217;50.986;5.826;2022-11-15T15:45:41;99569.88;;;19.29;43.34
26563;BME280;14217;50.986;5.826;2022-11-15T15:50:43;99574.72;;;19.22;43.80
26563;BME280;14217;50.986;5.826;2022-11-15T15:55:45;99570.28;;;19.23;43.55
26563;BME280;14217;50.986;5.826;2022-11-15T16:00:47;99568.78;;;19.19;43.52
26563;BME280;14217;50.986;5.826;2022-11-15T16:05:50;99571.22;;;19.22;43.71
26563;BME280;14217;50.986;5.826;2022-11-15T16:10:52;99566.84;;;19.08;44.28
26563;BME280;14217;50.986;5.826;2022-11-15T16:15:54;99573.03;;;19.21;43.85
26563;BME280;14217;50.986;5.826;2022-11-15T16:20:57;99572.06;;;19.22;43.59
26563;BME280;14217;50.986;5.826;2022-11-15T16:25:59;99566.66;;;19.24;43.69
26563;BME280;14217;50.986;5.826;2022-11-15T16:36:19;99562.81;;;19.15;43.81
26563;BME280;14217;50.986;5.826;2022-11-15T16:41:29;99564.31;;;19.19;43.88
26563;BME280;14217;50.986;5.826;2022-11-15T16:46:31;99558.78;;;19.22;43.84
26563;BME280;14217;50.986;5.826;2022-11-15T16:51:33;99554.44;;;19.21;43.81
26563;BME280;14217;50.986;5.826;2022-11-15T16:56:35;99548.28;;;19.21;43.81
26563;BME280;14217;50.986;5.826;2022-11-15T17:01:37;99543.91;;;19.20;43.50
26563;BME280;14217;50.986;5.826;2022-11-15T17:06:47;99547.41;;;19.20;43.64
26563;BME280;14217;50.986;5.826;2022-11-15T17:11:51;99545.50;;;19.22;43.80
26563;BME280;14217;50.986;5.826;2022-11-15T17:16:53;99542.75;;;19.24;43.57
26563;BME280;14217;50.986;5.826;2022-11-15T17:21:58;99536.78;;;19.20;43.84
26563;BME280;14217;50.986;5.826;2022-11-15T17:27:00;99529.47;;;19.11;43.76
26563;BME280;14217;50.986;5.826;2022-11-15T17:32:02;99534.34;;;19.17;43.78
26563;BME280;14217;50.986;5.826;2022-11-15T17:37:04;99528.53;;;19.12;43.92
26563;BME280;14217;50.986;5.826;2022-11-15T17:42:07;99522.47;;;19.10;43.98
26563;BME280;14217;50.986;5.826;2022-11-15T17:47:09;99524.38;;;19.08;43.82
26563;BME280;14217;50.986;5.826;2022-11-15T17:52:11;99518.22;;;19.20;43.67
26563;BME280;14217;50.986;5.826;2022-11-15T17:57:12;99508.31;;;19.09;43.91
26563;BME280;14217;50.986;5.826;2022-11-15T18:02:14;99508.63;;;19.05;44.07
26563;BME280;14217;50.986;5.826;2022-11-15T18:07:16;99507.06;;;19.15;43.77
26563;BME280;14217;50.986;5.826;2022-11-15T18:12:18;99508.00;;;19.14;43.93
26563;BME280;14217;50.986;5.826;2022-11-15T18:17:20;99497.59;;;19.11;43.76
26563;BME280;14217;50.986;5.826;2022-11-15T18:22:23;99502.50;;;19.17;43.99
26563;BME280;14217;50.986;5.826;2022-11-15T18:27:25;99493.25;;;19.10;44.06
26563;BME280;14217;50.986;5.826;2022-11-15T18:32:27;99489.31;;;19.16;44.06
26563;BME280;14217;50.986;5.826;2022-11-15T18:37:29;99482.53;;;19.12;44.17
26563;BME280;14217;50.986;5.826;2022-11-15T18:42:31;99472.88;;;19.11;43.99
26563;BME280;14217;50.986;5.826;2022-11-15T18:47:33;99459.28;;;19.15;43.82
26563;BME280;14217;50.986;5.826;2022-11-15T18:52:35;99461.09;;;19.15;44.04
26563;BME280;14217;50.986;5.826;2022-11-15T18:57:37;99457.03;;;19.22;43.75
26563;BME280;14217;50.986;5.826;2022-11-15T19:02:39;99450.97;;;19.20;43.66
26563;BME280;14217;50.986;5.826;2022-11-15T19:07:41;99450.25;;;19.18;44.08
26563;BME280;14217;50.986;5.826;2022-11-15T19:12:43;99446.00;;;19.15;44.03
26563;BME280;14217;50.986;5.826;2022-11-15T19:17:47;99445.34;;;19.12;44.12
26563;BME280;14217;50.986;5.826;2022-11-15T19:22:49;99438.56;;;19.20;44.72
26563;BME280;14217;50.986;5.826;2022-11-15T19:27:51;99432.19;;;19.23;44.60
26563;BME280;14217;50.986;5.826;2022-11-15T19:32:53;99429.84;;;19.18;44.72
26563;BME280;14217;50.986;5.826;2022-11-15T19:37:54;99418.94;;;19.23;44.41
26563;BME280;14217;50.986;5.826;2022-11-15T19:42:56;99420.84;;;19.21;44.28
26563;BME280;14217;50.986;5.826;2022-11-15T19:47:58;99421.59;;;19.23;44.14
26563;BME280;14217;50.986;5.826;2022-11-15T19:53:00;99405.44;;;19.13;44.64
26563;BME280;14217;50.986;5.826;2022-11-15T19:58:02;99408.59;;;19.18;44.48
26563;BME280;14217;50.986;5.826;2022-11-15T20:03:04;99400.44;;;19.21;44.35
26563;BME280;14217;50.986;5.826;2022-11-15T20:08:06;99407.75;;;19.18;44.51
26563;BME280;14217;50.986;5.826;2022-11-15T20:13:08;99405.00;;;19.06;44.74
26563;BME280;14217;50.986;5.826;2022-11-15T20:18:10;99399.38;;;19.11;44.33
26563;BME280;14217;50.986;5.826;2022-11-15T20:23:12;99399.72;;;19.06;44.66
26563;BME280;14217;50.986;5.826;2022-11-15T20:28:25;99394.81;;;19.13;44.48
26563;BME280;14217;50.986;5.826;2022-11-15T20:33:27;99392.91;;;19.15;44.39
26563;BME280;14217;50.986;5.826;2022-11-15T20:38:29;99386.53;;;19.18;44.20
26563;BME280;14217;50.986;5.826;2022-11-15T20:43:32;99386.19;;;19.22;44.14
26563;BME280;14217;50.986;5.826;2022-11-15T20:48:34;99383.34;;;19.13;44.07
26563;BME280;14217;50.986;5.826;2022-11-15T20:53:36;99372.19;;;19.07;44.32
26563;BME280;14217;50.986;5.826;2022-11-15T20:58:39;99374.84;;;19.07;44.55
26563;BME280;14217;50.986;5.826;2022-11-15T21:03:41;99369.84;;;19.16;44.22
26563;BME280;14217;50.986;5.826;2022-11-15T21:08:43;99366.44;;;19.14;44.25
26563;BME280;14217;50.986;5.826;2022-11-15T21:14:04;99368.25;;;19.13;44.37
26563;BME280;14217;50.986;5.826;2022-11-15T21:19:10;99360.41;;;18.99;44.68
26563;BME280;14217;50.986;5.826;2022-11-15T21:24:12;99354.03;;;19.01;44.59
26563;BME280;14217;50.986;5.826;2022-11-15T21:29:14;99354.69;;;19.05;44.56
26563;BME280;14217;50.986;5.826;2022-11-15T21:34:18;99348.72;;;19.14;44.27
26563;BME280;14217;50.986;5.826;2022-11-15T21:39:20;99335.44;;;19.14;44.18
26563;BME280;14217;50.986;5.826;2022-11-15T21:44:22;99320.72;;;19.10;44.02
26563;BME280;14217;50.986;5.826;2022-11-15T21:49:24;99320.88;;;19.20;43.95
26563;BME280;14217;50.986;5.826;2022-11-15T21:54:27;99316.16;;;19.12;44.16
26563;BME280;14217;50.986;5.826;2022-11-15T21:59:29;99320.03;;;19.19;43.86
26563;BME280;14217;50.986;5.826;2022-11-15T22:04:31;99312.63;;;19.12;44.28
26563;BME280;14217;50.986;5.826;2022-11-15T22:09:33;99303.69;;;19.25;44.32
26563;BME280;14217;50.986;5.826;2022-11-15T22:14:35;99308.44;;;19.20;44.14
26563;BME280;14217;50.986;5.826;2022-11-15T22:19:37;99298.41;;;19.13;44.29
26563;BME280;14217;50.986;5.826;2022-11-15T22:24:53;99296.25;;;19.18;44.13
26563;BME280;14217;50.986;5.826;2022-11-15T22:29:55;99282.88;;;19.19;44.13
26563;BME280;14217;50.986;5.826;2022-11-15T22:34:56;99281.69;;;19.23;44.15
26563;BME280;14217;50.986;5.826;2022-11-15T22:39:59;99269.91;;;19.27;44.18
26563;BME280;14217;50.986;5.826;2022-11-15T22:45:01;99270.97;;;19.25;44.28
26563;BME280;14217;50.986;5.826;2022-11-15T22:50:02;99261.09;;;19.27;44.28
26563;BME280;14217;50.986;5.826;2022-11-15T22:55:06;99270.09;;;19.24;44.31
26563;BME280;14217;50.986;5.826;2022-11-15T23:00:11;99269.16;;;19.25;44.29
26563;BME280;14217;50.986;5.826;2022-11-15T23:05:13;99264.78;;;19.24;44.12
26563;BME280;14217;50.986;5.826;2022-11-15T23:10:15;99266.84;;;19.21;44.13
26563;BME280;14217;50.986;5.826;2022-11-15T23:15:36;99254.56;;;19.31;43.83
26563;BME280;14217;50.986;5.826;2022-11-15T23:20:56;99252.38;;;19.25;44.01
26563;BME280;14217;50.986;5.826;2022-11-15T23:25:58;99246.75;;;19.29;43.90
26563;BME280;14217;50.986;5.826;2022-11-15T23:31:06;99233.56;;;19.28;44.20
26563;BME280;14217;50.986;5.826;2022-11-15T23:36:28;99243.94;;;19.31;43.79
26563;BME280;14217;50.986;5.826;2022-11-15T23:41:30;99241.81;;;19.36;43.92
26563;BME280;14217;50.986;5.826;2022-11-15T23:46:32;99236.56;;;19.23;44.18
26563;BME280;14217;50.986;5.826;2022-11-15T23:51:34;99244.09;;;19.29;44.25
26563;BME280;14217;50.986;5.826;2022-11-15T23:56:37;99251.91;;;19.31;44.20
